createdAt,value
2022-08-02T00:01:21.582Z,13.63
2022-08-02T00:03:49.699Z,13.81
2022-08-02T00:06:17.400Z,13.79
2022-08-02T00:08:45.114Z,13.56
2022-08-02T00:11:13.162Z,13.63
2022-08-02T00:13:40.818Z,13.43
2022-08-02T00:16:08.438Z,13.76
2022-08-02T00:18:36.404Z,13.95
2022-08-02T00:21:04.192Z,13.82
2022-08-02T00:23:31.974Z,13.60
2022-08-02T00:26:00.073Z,13.64
2022-08-02T00:28:28.353Z,13.53
2022-08-02T00:30:57.176Z,13.66
2022-08-02T00:34:29.927Z,13.40
2022-08-02T00:36:13.335Z,13.66
2022-08-02T00:38:41.470Z,13.42
2022-08-02T00:41:13.587Z,13.56
2022-08-02T00:43:41.694Z,13.29
2022-08-02T00:46:09.460Z,13.42
2022-08-02T00:48:37.146Z,13.28
2022-08-02T00:51:09.662Z,13.25
2022-08-02T00:53:37.350Z,13.38
2022-08-02T00:56:05.164Z,13.29
2022-08-02T00:58:33.400Z,13.44
2022-08-02T01:01:02.391Z,13.58
2022-08-02T01:03:30.077Z,13.44
2022-08-02T01:06:11.034Z,13.67
2022-08-02T01:08:39.947Z,13.16
2022-08-02T01:11:08.051Z,13.30
2022-08-02T01:13:35.690Z,13.11
2022-08-02T01:16:07.484Z,13.09
2022-08-02T01:18:42.183Z,13.15
2022-08-02T01:21:28.315Z,13.19
2022-08-02T01:24:28.901Z,13.05
2022-08-02T01:27:07.706Z,13.12
2022-08-02T01:29:39.221Z,13.38
2022-08-02T01:32:16.838Z,13.40
2022-08-02T01:34:51.380Z,13.15
2022-08-02T01:37:37.234Z,13.28
2022-08-02T01:40:22.681Z,13.24
2022-08-02T01:42:52.037Z,13.15
2022-08-02T01:45:20.641Z,13.03
2022-08-02T01:47:49.492Z,12.92
2022-08-02T01:50:18.490Z,13.04
2022-08-02T01:52:53.556Z,13.13
2022-08-02T01:55:57.047Z,13.07
2022-08-02T01:58:25.295Z,12.89
2022-08-02T02:00:56.140Z,13.12
2022-08-02T02:03:25.548Z,13.23
2022-08-02T02:05:55.981Z,13.23
2022-08-02T02:08:31.342Z,13.10
2022-08-02T02:12:06.217Z,13.08
2022-08-02T02:13:47.882Z,12.76
2022-08-02T02:16:16.410Z,13.13
2022-08-02T02:18:45.158Z,13.05
2022-08-02T02:21:13.214Z,13.00
2022-08-02T02:23:41.491Z,13.02
2022-08-02T02:26:11.658Z,13.10
2022-08-02T02:28:41.551Z,13.23
2022-08-02T02:31:11.014Z,13.22
2022-08-02T02:33:47.746Z,13.24
2022-08-02T02:36:17.481Z,13.51
2022-08-02T02:38:46.020Z,13.53
2022-08-02T02:41:14.362Z,13.46
2022-08-02T02:43:44.031Z,13.59
2022-08-02T02:46:12.938Z,13.66
2022-08-02T02:48:41.140Z,13.71
2022-08-02T02:51:14.353Z,13.77
2022-08-02T02:54:30.040Z,13.73
2022-08-02T02:56:31.617Z,13.67
2022-08-02T02:59:01.011Z,13.57
2022-08-02T03:01:56.309Z,13.96
2022-08-02T03:04:17.824Z,13.98
2022-08-02T03:06:45.566Z,14.00
2022-08-02T03:09:13.427Z,14.21
2022-08-02T03:11:42.010Z,14.45
2022-08-02T03:14:10.418Z,14.72
2022-08-02T03:16:45.317Z,14.99
2022-08-02T03:19:14.098Z,15.37
2022-08-02T03:21:45.530Z,15.60
2022-08-02T03:24:13.737Z,15.86
2022-08-02T03:26:42.074Z,16.10
2022-08-02T03:29:11.081Z,16.32
2022-08-02T03:31:42.058Z,16.53
2022-08-02T03:34:09.818Z,16.74
2022-08-02T03:36:37.869Z,17.01
2022-08-02T03:39:07.157Z,17.14
2022-08-02T03:41:36.390Z,17.36
2022-08-02T03:44:05.912Z,17.54
2022-08-02T03:46:39.930Z,17.67
2022-08-02T03:49:08.762Z,17.76
2022-08-02T03:51:36.948Z,17.98
2022-08-02T03:54:04.908Z,18.13
2022-08-02T03:56:32.561Z,18.30
2022-08-02T03:59:11.040Z,18.42
2022-08-02T04:01:38.778Z,18.56
2022-08-02T04:04:07.754Z,18.83
2022-08-02T04:06:35.692Z,19.05
2022-08-02T04:09:08.355Z,19.27
2022-08-02T04:11:36.217Z,19.49
2022-08-02T04:14:09.333Z,19.74
2022-08-02T04:16:39.623Z,20.03
2022-08-02T04:19:09.204Z,20.24
2022-08-02T04:21:51.463Z,20.59
2022-08-02T04:24:28.224Z,20.88
2022-08-02T04:27:06.783Z,21.17
2022-08-02T04:29:47.096Z,21.48
2022-08-02T04:32:15.738Z,21.80
2022-08-02T04:34:54.206Z,22.10
2022-08-02T04:37:33.241Z,22.35
2022-08-02T04:40:01.052Z,22.72
2022-08-02T04:42:28.786Z,22.98
2022-08-02T04:44:58.383Z,23.23
2022-08-02T04:48:01.873Z,23.48
2022-08-02T04:50:14.063Z,23.67
2022-08-02T04:52:45.524Z,23.85
2022-08-02T04:55:16.737Z,24.15
2022-08-02T04:57:56.444Z,24.45
2022-08-02T05:00:25.251Z,24.68
2022-08-02T05:02:53.045Z,24.88
2022-08-02T05:05:21.197Z,25.02
2022-08-02T05:07:49.221Z,25.23
2022-08-02T05:10:16.997Z,25.43
2022-08-02T05:12:44.728Z,25.65
2022-08-02T05:15:13.531Z,25.88
2022-08-02T05:17:47.571Z,26.18
2022-08-02T05:20:17.061Z,26.32
2022-08-02T05:22:45.381Z,26.57
2022-08-02T05:25:13.132Z,26.78
2022-08-02T05:27:41.235Z,27.12
2022-08-02T05:30:09.333Z,27.34
2022-08-02T05:32:43.397Z,27.53
2022-08-02T05:35:12.084Z,27.73
2022-08-02T05:37:42.202Z,28.16
2022-08-02T05:40:13.108Z,28.32
2022-08-02T05:42:41.600Z,28.41
2022-08-02T05:45:09.514Z,28.49
2022-08-02T05:47:37.752Z,28.77
2022-08-02T05:50:07.375Z,29.10
2022-08-02T05:52:55.270Z,29.29
2022-08-02T05:55:27.286Z,29.68
2022-08-02T05:58:13.650Z,30.08
2022-08-02T06:00:42.319Z,30.20
2022-08-02T06:03:26.422Z,30.32
2022-08-02T06:06:00.945Z,30.61
2022-08-02T06:08:38.876Z,30.78
2022-08-02T06:11:07.784Z,31.17
2022-08-02T06:13:36.405Z,31.44
2022-08-02T06:16:06.996Z,31.91
2022-08-02T06:18:43.330Z,32.17
2022-08-02T06:22:29.970Z,32.45
2022-08-02T06:23:59.736Z,32.36
2022-08-02T06:26:28.211Z,32.31
2022-08-02T06:28:57.389Z,32.53
2022-08-02T06:31:25.598Z,32.92
2022-08-02T06:33:53.415Z,33.12
2022-08-02T06:36:50.328Z,33.08
2022-08-02T06:39:21.385Z,33.42
2022-08-02T06:41:50.347Z,33.86
2022-08-02T06:47:12.961Z,33.16
2022-08-02T06:49:52.437Z,34.11
2022-08-02T06:52:28.812Z,34.05
2022-08-02T06:55:03.962Z,34.31
2022-08-02T06:57:31.942Z,34.62
2022-08-02T07:00:02.717Z,34.93
2022-08-02T07:02:32.287Z,35.23
2022-08-02T07:05:00.391Z,35.25
2022-08-02T07:07:28.386Z,35.35
2022-08-02T07:10:00.841Z,35.54
2022-08-02T07:12:33.874Z,35.47
2022-08-02T07:15:02.830Z,35.89
2022-08-02T07:17:33.073Z,35.66
2022-08-02T07:20:03.768Z,36.00
2022-08-02T07:22:31.926Z,36.18
2022-08-02T07:25:00.691Z,36.02
2022-08-02T07:27:28.936Z,35.94
2022-08-02T07:29:56.994Z,35.80
2022-08-02T07:32:26.016Z,36.78
2022-08-02T07:34:55.274Z,36.39
2022-08-02T07:37:53.931Z,36.56
2022-08-02T07:40:19.548Z,36.58
2022-08-02T07:42:56.428Z,35.42
2022-08-02T07:45:28.186Z,36.86
2022-08-02T07:47:57.343Z,37.02
2022-08-02T07:50:25.020Z,36.98
2022-08-02T07:52:57.141Z,36.61
2022-08-02T07:55:39.148Z,37.13
2022-08-02T07:58:11.221Z,37.75
2022-08-02T08:00:42.796Z,37.75
2022-08-02T08:03:11.300Z,38.09
2022-08-02T08:05:39.029Z,38.52
2022-08-02T08:08:07.020Z,38.71
2022-08-02T08:10:35.261Z,37.13
2022-08-02T08:13:02.965Z,37.72
2022-08-02T08:15:30.773Z,38.27
2022-08-02T08:17:58.748Z,37.44
2022-08-02T08:20:26.399Z,35.48
2022-08-02T08:22:54.013Z,35.44
2022-08-02T08:25:22.072Z,35.27
2022-08-02T08:27:51.771Z,35.64
2022-08-02T08:30:20.634Z,36.31
2022-08-02T08:32:49.362Z,37.44
2022-08-02T08:35:17.220Z,37.44
2022-08-02T08:37:45.183Z,37.44
2022-08-02T08:40:13.495Z,35.93
2022-08-02T08:42:47.321Z,38.64
2022-08-02T08:45:15.382Z,39.28
2022-08-02T08:47:43.523Z,38.56
2022-08-02T08:50:20.075Z,39.90
2022-08-02T08:52:54.206Z,37.41
2022-08-02T08:55:23.613Z,40.32
2022-08-02T08:57:51.825Z,39.61
2022-08-02T09:00:19.518Z,39.57
2022-08-02T09:02:47.847Z,40.36
2022-08-02T09:05:16.950Z,39.49
2022-08-02T09:07:48.119Z,37.51
2022-08-02T09:10:51.586Z,38.06
2022-08-02T09:13:38.591Z,39.08
2022-08-02T09:16:14.097Z,38.88
2022-08-02T09:18:45.178Z,39.38
2022-08-02T09:21:15.354Z,39.19
2022-08-02T09:23:43.228Z,39.51
2022-08-02T09:26:21.000Z,40.93
2022-08-02T09:28:53.398Z,39.15
2022-08-02T09:31:22.274Z,38.81
2022-08-02T09:33:57.822Z,37.65
2022-08-02T09:36:26.247Z,40.76
2022-08-02T09:38:58.474Z,41.87
2022-08-02T09:41:27.325Z,40.68
2022-08-02T09:44:04.416Z,38.55
2022-08-02T09:46:38.341Z,40.22
2022-08-02T09:49:09.647Z,39.75
2022-08-02T09:51:58.136Z,37.47
2022-08-02T09:54:29.736Z,38.17
2022-08-02T09:56:58.773Z,39.01
2022-08-02T09:59:52.979Z,36.81
2022-08-02T10:02:20.735Z,35.09
2022-08-02T10:04:52.504Z,38.51
2022-08-02T10:07:22.459Z,37.92
2022-08-02T10:09:51.405Z,38.51
2022-08-02T10:12:25.071Z,38.85
2022-08-02T10:14:52.699Z,37.46
2022-08-02T10:17:21.562Z,37.42
2022-08-02T10:20:08.498Z,36.57
2022-08-02T10:22:36.686Z,31.95
2022-08-02T10:25:05.137Z,34.76
2022-08-02T10:27:55.111Z,38.24
2022-08-02T10:30:23.868Z,37.87
2022-08-02T10:32:52.017Z,38.67
2022-08-02T10:35:25.995Z,37.40
2022-08-02T10:37:56.548Z,37.88
2022-08-02T10:41:03.074Z,39.48
2022-08-02T10:43:37.370Z,40.41
2022-08-02T10:46:23.629Z,39.27
2022-08-02T10:49:38.554Z,39.01
2022-08-02T10:52:02.417Z,40.10
2022-08-02T10:54:33.551Z,37.66
2022-08-02T10:57:01.771Z,39.28
2022-08-02T10:59:31.997Z,40.34
2022-08-02T11:02:04.307Z,37.28
2022-08-02T11:04:32.417Z,35.52
2022-08-02T11:07:09.010Z,35.02
2022-08-02T11:09:37.600Z,33.81
2022-08-02T11:12:09.803Z,35.09
2022-08-02T11:14:39.200Z,35.55
2022-08-02T11:17:07.232Z,35.76
2022-08-02T11:19:36.525Z,34.04
2022-08-02T11:22:15.635Z,33.52
2022-08-02T11:24:47.640Z,37.12
2022-08-02T11:27:21.969Z,37.71
2022-08-02T11:29:50.222Z,35.67
2022-08-02T11:32:30.601Z,36.78
2022-08-02T11:34:59.456Z,34.34
2022-08-02T11:37:31.647Z,31.30
2022-08-02T11:39:59.363Z,31.66
2022-08-02T11:42:34.107Z,35.32
2022-08-02T11:45:02.464Z,36.13
2022-08-02T11:47:32.050Z,33.98
2022-08-02T11:50:09.999Z,32.23
2022-08-02T11:52:39.649Z,32.28
2022-08-02T11:55:07.910Z,31.74
2022-08-02T11:58:03.395Z,32.05
2022-08-02T12:00:30.343Z,35.79
2022-08-02T12:02:59.092Z,34.50
2022-08-02T12:06:05.454Z,34.07
2022-08-02T12:08:19.065Z,33.46
2022-08-02T12:10:48.350Z,32.98
2022-08-02T12:13:16.436Z,35.07
2022-08-02T12:15:45.624Z,33.55
2022-08-02T12:18:35.789Z,33.09
2022-08-02T12:21:04.330Z,32.70
2022-08-02T12:23:32.016Z,31.45
2022-08-02T12:26:06.885Z,31.22
2022-08-02T12:28:35.767Z,32.44
2022-08-02T12:31:03.520Z,31.02
2022-08-02T12:33:45.454Z,30.61
2022-08-02T12:36:19.372Z,30.49
2022-08-02T12:39:00.768Z,31.36
2022-08-02T12:41:30.455Z,33.08
2022-08-02T12:44:00.399Z,34.13
2022-08-02T12:46:28.709Z,34.71
2022-08-02T12:49:16.623Z,34.83
2022-08-02T12:51:54.490Z,34.45
2022-08-02T12:54:31.701Z,34.75
2022-08-02T12:57:13.164Z,34.45
2022-08-02T12:59:42.645Z,35.01
2022-08-02T13:02:12.351Z,35.22
2022-08-02T13:04:41.435Z,35.84
2022-08-02T13:07:09.759Z,35.89
2022-08-02T13:09:38.952Z,36.88
2022-08-02T13:12:12.068Z,36.88
2022-08-02T13:14:41.811Z,36.29
2022-08-02T13:17:10.592Z,36.31
2022-08-02T13:19:38.794Z,36.67
2022-08-02T13:22:08.589Z,36.87
2022-08-02T13:24:55.121Z,36.05
2022-08-02T13:27:25.404Z,35.63
2022-08-02T13:29:55.150Z,36.82
2022-08-02T13:32:23.177Z,37.08
2022-08-02T13:34:51.465Z,35.94
2022-08-02T13:37:19.314Z,37.04
2022-08-02T13:40:11.800Z,37.79
2022-08-02T13:42:38.266Z,36.53
2022-08-02T13:45:13.001Z,36.73
2022-08-02T13:47:57.555Z,36.92
2022-08-02T13:50:31.700Z,36.76
2022-08-02T13:53:02.890Z,36.52
2022-08-02T13:55:30.660Z,36.59
2022-08-02T13:57:58.382Z,36.77
2022-08-02T14:00:35.028Z,38.02
2022-08-02T14:03:07.925Z,38.45
2022-08-02T14:05:48.173Z,38.88
2022-08-02T14:08:20.315Z,39.20
2022-08-02T14:10:48.914Z,39.01
2022-08-02T14:13:19.739Z,39.11
2022-08-02T14:15:47.374Z,38.73
2022-08-02T14:18:15.658Z,37.91
2022-08-02T14:20:44.914Z,38.26
2022-08-02T14:23:12.660Z,38.76
2022-08-02T14:25:40.806Z,39.06
2022-08-02T14:28:09.085Z,38.74
2022-08-02T14:30:36.867Z,39.02
2022-08-02T14:33:05.203Z,39.26
2022-08-02T14:35:33.400Z,39.49
2022-08-02T14:38:01.167Z,39.21
2022-08-02T14:40:31.472Z,39.04
2022-08-02T14:43:01.190Z,39.34
2022-08-02T14:45:41.009Z,39.49
2022-08-02T14:48:10.994Z,39.29
2022-08-02T14:50:39.539Z,38.54
2022-08-02T14:53:12.580Z,38.58
2022-08-02T14:55:41.566Z,38.36
2022-08-02T14:58:09.758Z,37.79
2022-08-02T15:00:40.895Z,38.04
2022-08-02T15:03:10.043Z,36.82
2022-08-02T15:05:38.417Z,35.23
2022-08-02T15:08:06.621Z,33.53
2022-08-02T15:10:34.776Z,33.10
2022-08-02T15:13:02.502Z,34.97
2022-08-02T15:15:30.136Z,36.26
2022-08-02T15:17:58.356Z,37.39
2022-08-02T15:20:28.191Z,37.85
2022-08-02T15:22:56.321Z,37.88
2022-08-02T15:25:26.116Z,37.57
2022-08-02T15:27:53.743Z,37.76
2022-08-02T15:30:21.567Z,37.07
2022-08-02T15:32:52.634Z,37.61
2022-08-02T15:35:21.728Z,38.02
2022-08-02T15:37:49.995Z,38.15
2022-08-02T15:40:17.919Z,38.03
2022-08-02T15:42:45.654Z,38.00
2022-08-02T15:45:15.575Z,37.95
2022-08-02T15:47:48.057Z,37.68
2022-08-02T15:50:19.050Z,37.59
2022-08-02T15:52:47.019Z,37.62
2022-08-02T15:55:14.850Z,37.52
2022-08-02T15:57:42.927Z,37.37
2022-08-02T16:00:18.152Z,37.26
2022-08-02T16:02:47.914Z,36.80
2022-08-02T16:05:18.418Z,35.69
2022-08-02T16:07:46.758Z,35.68
2022-08-02T16:10:15.924Z,35.81
2022-08-02T16:12:43.963Z,35.80
2022-08-02T16:15:12.986Z,35.65
2022-08-02T16:17:53.477Z,35.43
2022-08-02T16:20:23.623Z,35.10
2022-08-02T16:22:51.774Z,34.82
2022-08-02T16:25:19.718Z,34.56
2022-08-02T16:28:00.207Z,34.16
2022-08-02T16:30:35.121Z,33.76
2022-08-02T16:33:03.160Z,33.40
2022-08-02T16:35:32.017Z,33.00
2022-08-02T16:38:00.369Z,32.61
2022-08-02T16:40:28.195Z,32.37
2022-08-02T16:42:56.016Z,31.05
2022-08-02T16:45:24.315Z,29.87
2022-08-02T16:47:57.372Z,29.23
2022-08-02T16:50:29.241Z,28.47
2022-08-02T16:52:58.394Z,27.95
2022-08-02T16:55:29.354Z,27.01
2022-08-02T16:58:01.105Z,26.77
2022-08-02T17:00:29.439Z,26.55
2022-08-02T17:02:59.139Z,26.65
2022-08-02T17:05:37.557Z,26.59
2022-08-02T17:08:17.065Z,26.17
2022-08-02T17:10:45.666Z,26.13
2022-08-02T17:13:14.027Z,26.12
2022-08-02T17:16:08.148Z,26.12
2022-08-02T17:18:30.566Z,25.78
2022-08-02T17:20:58.615Z,25.21
2022-08-02T17:24:03.853Z,24.99
2022-08-02T17:26:14.901Z,24.72
2022-08-02T17:29:06.940Z,24.61
2022-08-02T17:31:43.017Z,24.66
2022-08-02T17:34:12.479Z,25.04
2022-08-02T17:36:40.691Z,24.71
2022-08-02T17:39:08.554Z,24.51
2022-08-02T17:41:49.203Z,24.38
2022-08-02T17:44:37.362Z,23.79
2022-08-02T17:47:08.598Z,23.55
2022-08-02T17:49:44.209Z,22.92
2022-08-02T17:52:50.790Z,22.13
2022-08-02T17:55:07.900Z,22.07
2022-08-02T17:57:55.549Z,22.09
2022-08-02T18:00:26.700Z,21.24
2022-08-02T18:02:55.431Z,22.13
2022-08-02T18:05:38.874Z,22.11
2022-08-02T18:08:08.652Z,21.98
2022-08-02T18:10:36.354Z,22.01
2022-08-02T18:13:05.505Z,21.95
2022-08-02T18:15:33.518Z,21.34
2022-08-02T18:18:01.313Z,21.62
2022-08-02T18:20:29.056Z,21.94
2022-08-02T18:22:58.762Z,21.96
2022-08-02T18:25:36.884Z,21.61
2022-08-02T18:28:12.268Z,21.90
2022-08-02T18:30:40.737Z,21.55
2022-08-02T18:33:57.556Z,21.68
2022-08-02T18:35:56.872Z,22.02
2022-08-02T18:38:27.926Z,22.35
2022-08-02T18:40:58.081Z,22.23
2022-08-02T18:43:29.463Z,21.89
2022-08-02T18:46:06.875Z,21.69
2022-08-02T18:48:44.156Z,21.13
2022-08-02T18:51:15.530Z,20.88
2022-08-02T18:53:43.560Z,20.94
2022-08-02T18:56:19.371Z,20.82
2022-08-02T18:58:52.993Z,20.61
2022-08-02T19:01:31.427Z,20.09
2022-08-02T19:04:02.202Z,20.75
2022-08-02T19:06:48.678Z,20.57
2022-08-02T19:09:19.046Z,20.37
2022-08-02T19:11:50.334Z,20.20
2022-08-02T19:14:27.589Z,20.52
2022-08-02T19:16:58.291Z,20.22
2022-08-02T19:19:28.677Z,20.12
2022-08-02T19:22:15.863Z,20.61
2022-08-02T19:24:52.066Z,20.35
2022-08-02T19:27:26.087Z,20.27
2022-08-02T19:30:03.825Z,19.69
2022-08-02T19:32:41.683Z,19.41
2022-08-02T19:35:30.838Z,19.81
2022-08-02T19:38:07.662Z,19.70
2022-08-02T19:40:37.238Z,19.67
2022-08-02T19:44:23.385Z,19.34
2022-08-02T19:45:56.824Z,19.80
2022-08-02T19:48:46.216Z,20.30
2022-08-02T19:51:54.683Z,20.45
2022-08-02T19:54:05.848Z,20.64
2022-08-02T19:56:38.825Z,20.02
2022-08-02T19:59:12.723Z,19.71
2022-08-02T20:01:46.441Z,19.87
2022-08-02T20:04:22.201Z,19.44
2022-08-02T20:06:51.579Z,19.57
2022-08-02T20:09:21.787Z,19.58
2022-08-02T20:11:54.748Z,19.76
2022-08-02T20:14:27.008Z,20.08
2022-08-02T20:16:57.042Z,19.99
2022-08-02T20:19:29.593Z,19.59
2022-08-02T20:21:59.650Z,20.11
2022-08-02T20:24:29.870Z,20.37
2022-08-02T20:26:58.967Z,20.20
2022-08-02T20:29:45.053Z,20.36
2022-08-02T20:32:25.620Z,20.56
2022-08-02T20:34:53.475Z,20.06
2022-08-02T20:38:01.088Z,19.94
2022-08-02T20:40:10.496Z,19.82
2022-08-02T20:42:47.803Z,19.51
2022-08-02T20:45:16.206Z,19.69
2022-08-02T20:47:49.625Z,19.93
2022-08-02T20:50:37.036Z,19.63
2022-08-02T20:53:05.506Z,19.50
2022-08-02T20:55:33.912Z,19.64
2022-08-02T20:58:02.723Z,19.70
2022-08-02T21:00:32.149Z,19.32
2022-08-02T21:03:01.045Z,19.22
2022-08-02T21:05:43.667Z,19.61
2022-08-02T21:08:21.386Z,19.64
2022-08-02T21:10:50.521Z,19.60
2022-08-02T21:13:22.639Z,19.28
2022-08-02T21:15:56.426Z,19.81
2022-08-02T21:18:38.938Z,20.07
2022-08-02T21:21:09.915Z,19.44
2022-08-02T21:23:48.342Z,19.63
2022-08-02T21:26:25.926Z,19.31
2022-08-02T21:28:56.897Z,19.43
2022-08-02T21:31:29.705Z,19.34
2022-08-02T21:34:00.486Z,18.90
2022-08-02T21:36:30.387Z,18.97
2022-08-02T21:39:05.630Z,18.89
2022-08-02T21:41:39.822Z,18.85
2022-08-02T21:44:16.678Z,19.31
2022-08-02T21:46:45.507Z,19.36
2022-08-02T21:49:14.630Z,19.34
2022-08-02T21:51:49.740Z,19.15
2022-08-02T21:54:21.361Z,18.72
2022-08-02T21:56:53.074Z,18.54
2022-08-02T21:59:39.496Z,17.94
2022-08-02T22:02:13.804Z,18.47
2022-08-02T22:04:47.869Z,18.35
2022-08-02T22:07:23.659Z,18.15
2022-08-02T22:09:53.414Z,18.50
2022-08-02T22:12:21.941Z,18.48
2022-08-02T22:14:56.545Z,18.59
2022-08-02T22:17:51.159Z,18.56
2022-08-02T22:20:19.815Z,18.30
2022-08-02T22:22:52.135Z,18.18
2022-08-02T22:25:27.298Z,17.63
2022-08-02T22:28:37.775Z,17.55
2022-08-02T22:31:00.053Z,17.51
2022-08-02T22:34:00.183Z,17.25
2022-08-02T22:36:33.508Z,17.44
2022-08-02T22:39:02.726Z,17.36
2022-08-02T22:42:02.163Z,17.53
2022-08-02T22:44:19.955Z,17.51
2022-08-02T22:46:49.931Z,17.82
2022-08-02T22:49:38.039Z,17.65
2022-08-02T22:52:06.446Z,17.61
2022-08-02T22:54:53.020Z,17.33
2022-08-02T22:57:30.898Z,16.93
2022-08-02T23:00:00.474Z,17.08
2022-08-02T23:02:31.325Z,17.32
2022-08-02T23:05:01.138Z,17.22
2022-08-02T23:07:36.253Z,17.53
2022-08-02T23:10:08.218Z,17.30
2022-08-02T23:12:37.627Z,17.46
2022-08-02T23:15:05.618Z,17.72
2022-08-02T23:17:52.963Z,17.72
2022-08-02T23:20:21.603Z,17.71
2022-08-02T23:22:49.368Z,17.41
2022-08-02T23:25:19.712Z,17.23
2022-08-02T23:27:51.266Z,17.32
2022-08-02T23:30:19.540Z,17.27
2022-08-02T23:32:47.764Z,17.30
2022-08-02T23:35:16.591Z,17.20
2022-08-02T23:38:00.406Z,17.35
2022-08-02T23:40:39.234Z,17.40
2022-08-02T23:43:12.441Z,17.51
2022-08-02T23:45:44.817Z,17.52
2022-08-02T23:48:12.673Z,17.49
2022-08-02T23:50:40.355Z,17.40
2022-08-02T23:53:08.357Z,17.29
2022-08-02T23:55:36.003Z,17.07
2022-08-02T23:58:03.718Z,16.96
